Blue Mound, Texas
Current Conditions -  °F | °C
As of 7:53 AM on Friday 28 Nov 2014 (Local Time) from KAFW Reporting Station
Clear Clear  
Wind Chill: 40°   Ceiling: Unl
Heat Index: 43°   Visibility: 10mi
Dew Point: 33°   Wind: 5mph
Humidity: 68%   Direction: 190°S
Pressure: 30.22"   Gusts: NA
Location:  32.9103°N, 97.3722°W
Report Text: KAFW 281353Z 19004KT 10SM CLR 06/01 A3022 RMK AO2 SLP240 T00610006
Loading
Personal Weather Stations






























Interactive Weather Map New forecast layout! Learn more

10-Day Weather Forecast

Advertisements
Track Severe Weather on mobile